createdAt,value
2022-11-26T00:01:29.393Z,2.96
2022-11-26T00:03:57.742Z,2.84
2022-11-26T00:06:27.741Z,2.80
2022-11-26T00:08:55.111Z,2.72
2022-11-26T00:11:22.193Z,2.73
2022-11-26T00:13:49.651Z,2.66
2022-11-26T00:16:17.010Z,2.68
2022-11-26T00:18:44.571Z,2.56
2022-11-26T00:21:29.826Z,2.44
2022-11-26T00:23:56.981Z,2.35
2022-11-26T00:26:25.876Z,2.35
2022-11-26T00:28:56.464Z,2.43
2022-11-26T00:31:24.758Z,2.43
2022-11-26T00:33:52.243Z,2.37
2022-11-26T00:36:33.310Z,2.40
2022-11-26T00:39:12.208Z,2.41
2022-11-26T00:41:40.035Z,2.38
2022-11-26T00:44:17.541Z,2.29
2022-11-26T00:46:47.510Z,2.16
2022-11-26T00:49:15.717Z,2.01
2022-11-26T00:51:43.976Z,1.92
2022-11-26T00:54:14.681Z,1.86
2022-11-26T00:56:44.829Z,1.84
2022-11-26T00:59:14.987Z,1.89
2022-11-26T01:01:42.545Z,1.92
2022-11-26T01:04:09.713Z,1.91
2022-11-26T01:06:40.063Z,1.88
2022-11-26T01:09:13.802Z,2.03
2022-11-26T01:11:40.962Z,2.04
2022-11-26T01:14:15.733Z,1.87
2022-11-26T01:16:44.964Z,1.90
2022-11-26T01:19:14.849Z,1.87
2022-11-26T01:21:42.346Z,1.85
2022-11-26T01:24:09.628Z,1.81
2022-11-26T01:26:42.263Z,1.80
2022-11-26T01:29:19.632Z,1.84
2022-11-26T01:31:46.977Z,1.86
2022-11-26T01:34:14.252Z,1.94
2022-11-26T01:36:42.455Z,1.96
2022-11-26T01:39:21.789Z,1.97
2022-11-26T01:42:02.892Z,1.92
2022-11-26T01:44:32.617Z,1.95
2022-11-26T01:47:00.855Z,1.96
2022-11-26T01:49:35.023Z,2.05
2022-11-26T01:52:18.071Z,2.05
2022-11-26T01:54:46.092Z,2.09
2022-11-26T01:57:28.473Z,2.01
2022-11-26T02:00:00.598Z,1.95
2022-11-26T02:02:30.215Z,1.97
2022-11-26T02:05:06.060Z,1.95
2022-11-26T02:07:33.273Z,1.99
2022-11-26T02:10:01.078Z,1.94
2022-11-26T02:12:28.836Z,1.92
2022-11-26T02:14:56.176Z,1.93
2022-11-26T02:17:39.635Z,1.84
2022-11-26T02:20:39.360Z,1.88
2022-11-26T02:23:29.063Z,1.88
2022-11-26T02:26:20.829Z,1.81
2022-11-26T02:29:08.806Z,1.78
2022-11-26T02:32:04.210Z,1.67
2022-11-26T02:34:44.922Z,1.63
2022-11-26T02:37:30.451Z,1.52
2022-11-26T02:39:58.548Z,1.31
2022-11-26T02:42:27.567Z,1.24
2022-11-26T02:44:58.404Z,1.26
2022-11-26T02:47:28.010Z,1.30
2022-11-26T02:49:57.672Z,1.34
2022-11-26T02:52:26.289Z,1.36
2022-11-26T02:54:55.625Z,1.32
2022-11-26T02:57:26.644Z,1.35
2022-11-26T02:59:54.160Z,1.40
2022-11-26T03:02:32.750Z,1.43
2022-11-26T03:05:02.488Z,1.42
2022-11-26T03:07:31.494Z,1.47
2022-11-26T03:10:00.988Z,1.41
2022-11-26T03:12:29.092Z,1.42
2022-11-26T03:14:56.614Z,1.42
2022-11-26T03:17:23.663Z,1.43
2022-11-26T03:19:50.985Z,1.37
2022-11-26T03:22:18.598Z,1.40
2022-11-26T03:24:45.828Z,1.41
2022-11-26T03:27:12.843Z,1.38
2022-11-26T03:29:39.959Z,1.36
2022-11-26T03:32:07.579Z,1.36
2022-11-26T03:34:34.765Z,1.34
2022-11-26T03:37:01.870Z,1.35
2022-11-26T03:39:28.988Z,1.30
2022-11-26T03:41:56.215Z,1.25
2022-11-26T03:44:23.473Z,1.25
2022-11-26T03:46:50.505Z,1.29
2022-11-26T03:49:17.995Z,1.19
2022-11-26T03:51:45.023Z,1.20
2022-11-26T03:54:12.462Z,1.18
2022-11-26T03:56:39.554Z,1.13
2022-11-26T03:59:07.085Z,1.01
2022-11-26T04:01:34.430Z,1.07
2022-11-26T04:04:01.627Z,1.04
2022-11-26T04:06:28.841Z,1.05
2022-11-26T04:08:55.965Z,1.04
2022-11-26T04:11:23.277Z,1.03
2022-11-26T04:13:50.291Z,1.00
2022-11-26T04:16:17.456Z,0.97
2022-11-26T04:18:44.760Z,0.95
2022-11-26T04:21:12.217Z,0.87
2022-11-26T04:23:39.634Z,0.92
2022-11-26T04:26:06.932Z,0.81
2022-11-26T04:28:34.227Z,0.75
2022-11-26T04:31:01.582Z,0.70
2022-11-26T04:33:28.657Z,0.66
2022-11-26T04:35:56.279Z,0.61
2022-11-26T04:38:25.981Z,0.53
2022-11-26T04:40:53.453Z,0.54
2022-11-26T04:43:21.282Z,0.53
2022-11-26T04:45:51.329Z,0.46
2022-11-26T04:48:18.878Z,0.48
2022-11-26T04:50:46.463Z,0.46
2022-11-26T04:53:13.910Z,0.47
2022-11-26T04:55:41.061Z,0.45
2022-11-26T04:58:09.542Z,0.49
2022-11-26T05:00:36.608Z,0.53
2022-11-26T05:03:03.709Z,0.52
2022-11-26T05:05:31.139Z,0.47
2022-11-26T05:07:58.349Z,0.51
2022-11-26T05:10:25.507Z,0.49
2022-11-26T05:12:52.581Z,0.44
2022-11-26T05:15:19.686Z,0.46
2022-11-26T05:17:46.952Z,0.37
2022-11-26T05:20:15.284Z,0.32
2022-11-26T05:22:43.308Z,0.35
2022-11-26T05:25:10.767Z,0.39
2022-11-26T05:27:38.065Z,0.34
2022-11-26T05:30:06.170Z,0.36
2022-11-26T05:32:33.229Z,0.36
2022-11-26T05:35:00.580Z,0.26
2022-11-26T05:37:28.017Z,0.14
2022-11-26T05:39:55.186Z,0.21
2022-11-26T05:42:22.624Z,0.21
2022-11-26T05:44:49.712Z,0.22
2022-11-26T05:47:17.088Z,0.31
2022-11-26T05:49:44.750Z,0.25
2022-11-26T05:52:11.898Z,0.25
2022-11-26T05:54:39.468Z,0.28
2022-11-26T05:57:06.993Z,0.34
2022-11-26T05:59:34.351Z,0.40
2022-11-26T06:02:01.422Z,0.36
2022-11-26T06:04:29.458Z,0.37
2022-11-26T06:06:56.366Z,0.38
2022-11-26T06:09:23.468Z,0.39
2022-11-26T06:11:51.003Z,0.42
2022-11-26T06:14:18.650Z,0.45
2022-11-26T06:16:45.794Z,0.41
2022-11-26T06:19:13.378Z,0.46
2022-11-26T06:21:40.610Z,0.48
2022-11-26T06:24:16.168Z,0.52
2022-11-26T06:26:43.269Z,0.48
2022-11-26T06:29:10.689Z,0.52
2022-11-26T06:31:37.959Z,0.57
2022-11-26T06:34:05.281Z,0.62
2022-11-26T06:36:32.364Z,0.62
2022-11-26T06:38:59.446Z,0.69
2022-11-26T06:41:27.545Z,0.72
2022-11-26T06:43:54.832Z,0.75
2022-11-26T06:46:22.103Z,0.79
2022-11-26T06:48:49.248Z,0.85
2022-11-26T06:51:17.370Z,0.91
2022-11-26T06:53:44.526Z,0.94
2022-11-26T06:56:18.380Z,0.94
2022-11-26T06:58:47.162Z,0.96
2022-11-26T07:01:20.177Z,0.94
2022-11-26T07:03:48.042Z,0.98
2022-11-26T07:06:21.325Z,1.10
2022-11-26T07:08:49.112Z,1.12
2022-11-26T07:11:17.099Z,1.24
2022-11-26T07:13:44.292Z,1.32
2022-11-26T07:16:12.178Z,1.37
2022-11-26T07:18:39.586Z,1.47
2022-11-26T07:21:09.497Z,1.53
2022-11-26T07:23:36.724Z,1.63
2022-11-26T07:26:05.560Z,1.68
2022-11-26T07:28:37.537Z,1.82
2022-11-26T07:31:10.401Z,1.91
2022-11-26T07:33:41.982Z,2.00
2022-11-26T07:36:15.319Z,2.13
2022-11-26T07:38:42.661Z,2.26
2022-11-26T07:41:13.043Z,2.41
2022-11-26T07:43:41.699Z,2.55
2022-11-26T07:46:12.779Z,2.76
2022-11-26T07:48:40.580Z,2.89
2022-11-26T07:51:15.834Z,3.08
2022-11-26T07:53:43.053Z,3.26
2022-11-26T07:56:10.256Z,3.37
2022-11-26T07:58:37.494Z,3.45
2022-11-26T08:01:09.548Z,3.55
2022-11-26T08:03:41.356Z,3.72
2022-11-26T08:06:10.647Z,3.92
2022-11-26T08:08:38.243Z,4.08
2022-11-26T08:11:12.596Z,4.25
2022-11-26T08:13:39.720Z,4.38
2022-11-26T08:16:06.958Z,4.56
2022-11-26T08:18:34.158Z,4.68
2022-11-26T08:21:01.585Z,4.78
2022-11-26T08:23:30.735Z,4.94
2022-11-26T08:26:22.681Z,5.08
2022-11-26T08:28:53.586Z,5.28
2022-11-26T08:31:25.111Z,5.47
2022-11-26T08:33:52.338Z,5.63
2022-11-26T08:36:19.526Z,5.73
2022-11-26T08:38:46.479Z,5.91
2022-11-26T08:41:14.347Z,5.97
2022-11-26T08:44:06.284Z,6.14
2022-11-26T08:46:32.581Z,6.30
2022-11-26T08:48:59.981Z,6.39
2022-11-26T08:51:27.417Z,6.48
2022-11-26T08:53:54.422Z,6.63
2022-11-26T08:56:21.834Z,6.70
2022-11-26T08:58:49.323Z,6.85
2022-11-26T09:01:19.580Z,6.95
2022-11-26T09:03:51.639Z,7.03
2022-11-26T09:06:20.673Z,7.09
2022-11-26T09:09:06.574Z,7.16
2022-11-26T09:11:36.563Z,7.19
2022-11-26T09:14:04.719Z,7.23
2022-11-26T09:16:32.289Z,7.36
2022-11-26T09:19:04.291Z,7.44
2022-11-26T09:21:31.636Z,7.53
2022-11-26T09:23:58.745Z,7.57
2022-11-26T09:26:29.017Z,7.61
2022-11-26T09:28:56.280Z,7.67
2022-11-26T09:31:24.583Z,7.76
2022-11-26T09:33:55.639Z,7.80
2022-11-26T09:36:22.881Z,7.85
2022-11-26T09:38:53.462Z,7.89
2022-11-26T09:41:39.238Z,7.88
2022-11-26T09:44:39.998Z,7.83
2022-11-26T09:47:22.815Z,7.84
2022-11-26T09:49:59.828Z,7.88
2022-11-26T09:52:31.230Z,7.95
2022-11-26T09:55:08.809Z,8.02
2022-11-26T09:57:41.135Z,8.07
2022-11-26T10:00:23.681Z,8.18
2022-11-26T10:02:57.970Z,8.24
2022-11-26T10:05:46.367Z,8.31
2022-11-26T10:08:40.938Z,8.30
2022-11-26T10:11:20.127Z,8.40
2022-11-26T10:13:53.374Z,8.42
2022-11-26T10:16:49.582Z,8.43
2022-11-26T10:19:35.640Z,8.42
2022-11-26T10:22:12.453Z,8.49
2022-11-26T10:24:42.550Z,8.59
2022-11-26T10:27:20.958Z,8.69
2022-11-26T10:30:09.752Z,8.77
2022-11-26T10:32:43.108Z,8.76
2022-11-26T10:35:16.741Z,8.86
2022-11-26T10:37:44.271Z,8.93
2022-11-26T10:40:28.087Z,9.00
2022-11-26T10:43:08.708Z,8.91
2022-11-26T10:45:50.814Z,8.97
2022-11-26T10:48:23.049Z,9.08
2022-11-26T10:51:16.776Z,9.21
2022-11-26T10:53:58.162Z,9.25
2022-11-26T10:56:44.071Z,9.34
2022-11-26T10:59:31.252Z,9.37
2022-11-26T11:02:04.393Z,9.36
2022-11-26T11:04:35.715Z,9.48
2022-11-26T11:07:06.146Z,9.54
2022-11-26T11:09:38.399Z,9.59
2022-11-26T11:12:11.638Z,9.66
2022-11-26T11:14:43.172Z,9.74
2022-11-26T11:17:37.346Z,9.79
2022-11-26T11:20:17.205Z,9.81
2022-11-26T11:22:46.271Z,9.96
2022-11-26T11:25:26.004Z,10.05
2022-11-26T11:27:55.477Z,10.09
2022-11-26T11:30:27.881Z,9.97
2022-11-26T11:33:18.185Z,9.83
2022-11-26T11:35:45.508Z,9.68
2022-11-26T11:38:24.752Z,9.66
2022-11-26T11:40:52.185Z,9.54
2022-11-26T11:43:23.442Z,9.52
2022-11-26T11:46:44.421Z,9.45
2022-11-26T11:49:24.804Z,9.51
2022-11-26T11:52:17.077Z,9.46
2022-11-26T11:54:50.587Z,9.44
2022-11-26T11:57:35.367Z,9.39
2022-11-26T12:00:16.544Z,9.48
2022-11-26T12:03:17.548Z,9.66
2022-11-26T12:06:06.325Z,9.67
2022-11-26T12:09:11.542Z,9.63
2022-11-26T12:11:55.748Z,9.56
2022-11-26T12:14:22.648Z,9.54
2022-11-26T12:16:55.053Z,9.60
2022-11-26T12:19:48.198Z,9.64
2022-11-26T12:22:25.596Z,9.64
2022-11-26T12:25:26.380Z,9.61
2022-11-26T12:28:06.013Z,9.67
2022-11-26T12:30:55.916Z,9.63
2022-11-26T12:33:43.877Z,9.63
2022-11-26T12:36:40.310Z,9.59
2022-11-26T12:39:53.912Z,9.64
2022-11-26T12:42:49.060Z,9.61
2022-11-26T12:45:33.444Z,9.67
2022-11-26T12:48:28.922Z,9.73
2022-11-26T12:51:12.887Z,9.77
2022-11-26T12:54:15.034Z,9.76
2022-11-26T12:56:48.306Z,9.82
2022-11-26T12:59:34.625Z,9.72
2022-11-26T13:02:15.818Z,9.55
2022-11-26T13:04:43.060Z,9.45
2022-11-26T13:07:28.236Z,9.44
2022-11-26T13:10:04.573Z,9.34
2022-11-26T13:12:50.259Z,9.20
2022-11-26T13:15:20.626Z,9.16
2022-11-26T13:17:51.502Z,9.10
2022-11-26T13:20:37.311Z,9.10
2022-11-26T13:23:39.362Z,9.09
2022-11-26T13:26:28.192Z,9.01
2022-11-26T13:29:22.630Z,8.93
2022-11-26T13:32:12.680Z,8.86
2022-11-26T13:35:09.871Z,8.81
2022-11-26T13:38:04.023Z,8.78
2022-11-26T13:40:58.407Z,8.71
2022-11-26T13:43:55.025Z,8.71
2022-11-26T13:46:40.945Z,8.68
2022-11-26T13:49:11.935Z,8.65
2022-11-26T13:51:56.608Z,8.59
2022-11-26T13:55:03.310Z,8.42
2022-11-26T13:57:44.470Z,8.34
2022-11-26T14:03:43.982Z,8.25
2022-11-26T14:06:41.878Z,8.21
2022-11-26T14:10:01.645Z,8.12
2022-11-26T14:13:03.000Z,8.13
2022-11-26T14:15:42.853Z,8.04
2022-11-26T14:18:17.783Z,7.94
2022-11-26T14:21:07.465Z,7.80
2022-11-26T14:23:55.307Z,7.75
2022-11-26T14:26:37.848Z,7.65
2022-11-26T14:29:07.681Z,7.57
2022-11-26T14:31:38.269Z,7.51
2022-11-26T14:34:18.482Z,7.44
2022-11-26T14:37:00.617Z,7.30
2022-11-26T14:39:29.315Z,7.28
2022-11-26T14:42:05.713Z,7.18
2022-11-26T14:44:34.191Z,6.98
2022-11-26T14:47:10.102Z,6.97
2022-11-26T14:49:48.355Z,6.84
2022-11-26T14:52:37.450Z,6.76
2022-11-26T14:55:13.323Z,6.67
2022-11-26T14:58:04.895Z,6.48
2022-11-26T15:00:38.254Z,6.30
2022-11-26T15:03:26.676Z,6.18
2022-11-26T15:05:54.088Z,6.07
2022-11-26T15:08:25.963Z,5.93
2022-11-26T15:11:02.040Z,5.77
2022-11-26T15:13:37.550Z,5.68
2022-11-26T15:16:24.924Z,5.53
2022-11-26T15:18:54.839Z,5.44
2022-11-26T15:21:45.617Z,5.30
2022-11-26T15:25:12.134Z,5.21
2022-11-26T15:27:30.112Z,5.07
2022-11-26T15:29:59.847Z,4.98
2022-11-26T15:32:35.716Z,4.86
2022-11-26T15:35:04.262Z,4.74
2022-11-26T15:37:52.503Z,4.69
2022-11-26T15:40:55.657Z,4.53
2022-11-26T15:43:39.537Z,4.30
2022-11-26T15:46:31.477Z,4.30
2022-11-26T15:49:09.471Z,4.19
2022-11-26T15:52:04.062Z,4.05
2022-11-26T15:55:12.362Z,3.81
2022-11-26T15:57:42.655Z,3.72
2022-11-26T16:00:52.639Z,3.74
2022-11-26T16:07:57.750Z,3.62
2022-11-26T16:18:06.187Z,3.38
2022-11-26T16:27:32.939Z,3.16
2022-11-26T16:37:12.700Z,3.08
2022-11-26T16:39:41.052Z,2.97
2022-11-26T16:42:50.182Z,2.87
2022-11-26T16:46:04.515Z,2.73
2022-11-26T16:49:26.790Z,2.66
2022-11-26T16:52:05.696Z,2.55
2022-11-26T16:55:03.546Z,2.48
2022-11-26T16:58:14.032Z,2.41
2022-11-26T17:01:00.293Z,2.38
2022-11-26T17:03:39.009Z,2.38
2022-11-26T17:06:36.537Z,2.45
2022-11-26T17:09:17.436Z,2.46
2022-11-26T17:11:56.151Z,2.39
2022-11-26T17:14:23.893Z,2.37
2022-11-26T17:16:53.608Z,2.41
2022-11-26T17:19:21.025Z,2.37
2022-11-26T17:21:48.523Z,2.32
2022-11-26T17:24:19.071Z,2.28
2022-11-26T17:26:50.523Z,2.24
2022-11-26T17:29:20.838Z,2.17
2022-11-26T17:31:50.270Z,2.13
2022-11-26T17:34:20.414Z,2.10
2022-11-26T17:36:55.991Z,2.10
2022-11-26T17:39:32.897Z,2.12
2022-11-26T17:42:00.615Z,2.08
2022-11-26T17:44:28.448Z,2.02
2022-11-26T17:47:16.249Z,2.00
2022-11-26T17:49:45.825Z,2.02
2022-11-26T17:52:20.300Z,1.95
2022-11-26T17:54:51.270Z,1.89
2022-11-26T18:00:02.740Z,1.91
2022-11-26T18:02:32.996Z,1.95
2022-11-26T18:05:00.573Z,1.93
2022-11-26T18:07:33.680Z,1.90
2022-11-26T18:10:00.850Z,1.90
2022-11-26T18:12:31.853Z,1.88
2022-11-26T18:15:03.601Z,1.91
2022-11-26T18:17:31.350Z,1.94
2022-11-26T18:20:08.464Z,1.96
2022-11-26T18:22:35.920Z,1.94
2022-11-26T18:25:03.328Z,1.80
2022-11-26T18:27:33.459Z,1.76
2022-11-26T18:30:04.579Z,1.73
2022-11-26T18:32:33.569Z,1.73
2022-11-26T18:35:04.637Z,1.66
2022-11-26T18:37:32.188Z,1.60
2022-11-26T18:39:59.870Z,1.60
2022-11-26T18:42:37.075Z,1.58
2022-11-26T18:45:08.464Z,1.60
2022-11-26T18:47:35.991Z,1.56
2022-11-26T18:50:07.623Z,1.50
2022-11-26T18:52:35.057Z,1.51
2022-11-26T18:55:08.449Z,1.50
2022-11-26T18:57:38.899Z,1.50
2022-11-26T19:00:07.533Z,1.48
2022-11-26T19:02:36.650Z,1.42
2022-11-26T19:05:08.932Z,1.36
2022-11-26T19:07:40.674Z,1.38
2022-11-26T19:10:14.086Z,1.36
2022-11-26T19:12:41.464Z,1.37
2022-11-26T19:15:08.869Z,1.33
2022-11-26T19:17:36.263Z,1.25
2022-11-26T19:20:03.798Z,1.19
2022-11-26T19:22:31.177Z,1.10
2022-11-26T19:24:58.644Z,1.03
2022-11-26T19:27:29.289Z,1.06
2022-11-26T19:29:56.719Z,1.07
2022-11-26T19:32:24.570Z,1.07
2022-11-26T19:34:52.209Z,1.06
2022-11-26T19:37:19.608Z,1.06
2022-11-26T19:39:46.790Z,1.07
2022-11-26T19:42:17.046Z,1.04
2022-11-26T19:44:44.662Z,1.02
2022-11-26T19:47:12.028Z,1.00
2022-11-26T19:49:39.666Z,1.03
2022-11-26T19:52:34.204Z,1.00
2022-11-26T19:55:04.940Z,0.94
2022-11-26T19:57:33.525Z,0.91
2022-11-26T20:00:10.491Z,0.83
2022-11-26T20:06:41.018Z,0.83
2022-11-26T20:09:21.830Z,0.79
2022-11-26T20:11:52.847Z,0.73
2022-11-26T20:14:24.701Z,0.72
2022-11-26T20:16:57.633Z,0.72
2022-11-26T20:19:29.685Z,0.64
2022-11-26T20:22:27.835Z,0.61
2022-11-26T20:25:15.507Z,0.61
2022-11-26T20:27:48.804Z,0.61
2022-11-26T20:33:39.733Z,0.60
2022-11-26T20:36:14.974Z,0.54
2022-11-26T20:38:45.980Z,0.51
2022-11-26T20:41:26.491Z,0.48
2022-11-26T20:44:10.975Z,0.44
2022-11-26T20:47:15.644Z,0.47
2022-11-26T20:52:35.706Z,0.42
2022-11-26T20:55:26.995Z,0.39
2022-11-26T21:02:02.086Z,0.30
2022-11-26T21:04:42.853Z,0.28
2022-11-26T21:08:12.333Z,0.34
2022-11-26T21:10:53.359Z,0.31
2022-11-26T21:14:14.824Z,0.34
2022-11-26T21:20:49.776Z,0.13
2022-11-26T21:23:59.562Z,0.06
2022-11-26T21:26:53.706Z,0.04
2022-11-26T21:33:09.193Z,0.05
2022-11-26T21:49:54.536Z,0.10
2022-11-26T21:52:44.643Z,0.09
2022-11-26T21:55:16.086Z,0.09
2022-11-26T21:57:55.895Z,0.04
2022-11-26T22:00:48.138Z,-0.04
2022-11-26T22:03:26.566Z,-0.14
2022-11-26T22:06:23.704Z,-0.19
2022-11-26T22:09:04.824Z,-0.20
2022-11-26T22:12:03.900Z,-0.17
2022-11-26T22:14:44.189Z,-0.25
2022-11-26T22:17:15.372Z,-0.23
2022-11-26T22:19:51.234Z,-0.20
2022-11-26T22:22:22.838Z,-0.20
2022-11-26T22:25:11.968Z,-0.15
2022-11-26T22:27:43.338Z,-0.16
2022-11-26T22:30:13.916Z,-0.26
2022-11-26T22:32:41.958Z,-0.26
2022-11-26T22:35:12.620Z,-0.25
2022-11-26T22:37:45.872Z,-0.22
2022-11-26T22:40:29.849Z,-0.22
2022-11-26T22:43:07.223Z,-0.25
2022-11-26T22:45:41.456Z,-0.23
2022-11-26T22:48:11.585Z,-0.23
2022-11-26T22:50:50.898Z,-0.31
2022-11-26T22:53:18.937Z,-0.33
2022-11-26T22:56:01.296Z,-0.33
2022-11-26T22:58:36.832Z,-0.37
2022-11-26T23:01:09.590Z,-0.37
2022-11-26T23:03:40.869Z,-0.39
2022-11-26T23:06:22.477Z,-0.42
2022-11-26T23:08:50.823Z,-0.42
2022-11-26T23:11:22.027Z,-0.42
2022-11-26T23:13:50.668Z,-0.38
2022-11-26T23:16:20.323Z,-0.40
2022-11-26T23:18:48.815Z,-0.45
2022-11-26T23:21:25.996Z,-0.42
2022-11-26T23:23:58.941Z,-0.36
2022-11-26T23:26:41.251Z,-0.36
2022-11-26T23:29:13.123Z,-0.38
2022-11-26T23:31:51.110Z,-0.36
2022-11-26T23:34:20.094Z,-0.33
2022-11-26T23:37:08.772Z,-0.35
2022-11-26T23:39:36.125Z,-0.32
2022-11-26T23:42:03.412Z,-0.32
2022-11-26T23:44:32.668Z,-0.25
2022-11-26T23:47:03.238Z,-0.29
2022-11-26T23:49:43.906Z,-0.25
2022-11-26T23:52:19.954Z,-0.26
2022-11-26T23:54:47.747Z,-0.26
2022-11-26T23:57:15.665Z,-0.22
2022-11-26T23:59:43.101Z,-0.25
